sensor_id;sensor_type;location;lat;lon;timestamp;pressure;altitude;pressure_sealevel;temperature;humidity
50484;BME280;36409;52.168;20.878;2023-04-19T00:00:08;100846.88;;;9.39;63.17
50484;BME280;36409;52.168;20.878;2023-04-19T00:03:01;100839.11;;;9.29;63.92
50484;BME280;36409;52.168;20.878;2023-04-19T00:05:34;100840.84;;;9.22;63.57
50484;BME280;36409;52.168;20.878;2023-04-19T00:08:08;100839.11;;;9.13;63.62
50484;BME280;36409;52.168;20.878;2023-04-19T00:10:40;100835.62;;;9.03;64.11
50484;BME280;36409;52.168;20.878;2023-04-19T00:13:12;100835.64;;;8.94;64.66
50484;BME280;36409;52.168;20.878;2023-04-19T00:15:45;100828.70;;;8.87;64.06
50484;BME280;36409;52.168;20.878;2023-04-19T00:18:18;100831.30;;;8.79;64.78
50484;BME280;36409;52.168;20.878;2023-04-19T00:20:51;100833.90;;;8.70;64.74
50484;BME280;36409;52.168;20.878;2023-04-19T00:23:23;100826.93;;;8.62;65.08
50484;BME280;36409;52.168;20.878;2023-04-19T00:25:56;100823.47;;;8.57;65.08
50484;BME280;36409;52.168;20.878;2023-04-19T00:28:28;100827.81;;;8.54;65.15
50484;BME280;36409;52.168;20.878;2023-04-19T00:31:01;100821.67;;;8.45;65.15
50484;BME280;36409;52.168;20.878;2023-04-19T00:33:34;100829.48;;;8.39;65.57
50484;BME280;36409;52.168;20.878;2023-04-19T00:36:08;100820.80;;;8.31;65.78
50484;BME280;36409;52.168;20.878;2023-04-19T00:38:42;100821.65;;;8.25;65.82
50484;BME280;36409;52.168;20.878;2023-04-19T00:41:14;100821.61;;;8.19;66.12
50484;BME280;36409;52.168;20.878;2023-04-19T00:43:46;100812.08;;;8.10;66.15
50484;BME280;36409;52.168;20.878;2023-04-19T00:46:19;100814.64;;;8.04;65.98
50484;BME280;36409;52.168;20.878;2023-04-19T00:48:51;100811.16;;;7.96;66.91
50484;BME280;36409;52.168;20.878;2023-04-19T00:51:24;100807.66;;;7.91;66.48
50484;BME280;36409;52.168;20.878;2023-04-19T00:54:00;100811.98;;;7.85;66.84
50484;BME280;36409;52.168;20.878;2023-04-19T00:56:34;100806.77;;;7.81;67.05
50484;BME280;36409;52.168;20.878;2023-04-19T00:59:07;100805.00;;;7.78;67.50
50484;BME280;36409;52.168;20.878;2023-04-19T01:01:40;100798.08;;;7.74;67.43
50484;BME280;36409;52.168;20.878;2023-04-19T01:04:12;100798.05;;;7.71;67.69
50484;BME280;36409;52.168;20.878;2023-04-19T01:06:46;100791.98;;;7.67;67.55
50484;BME280;36409;52.168;20.878;2023-04-19T01:09:18;100791.09;;;7.67;67.90
50484;BME280;36409;52.168;20.878;2023-04-19T01:11:51;100784.16;;;7.64;67.95
50484;BME280;36409;52.168;20.878;2023-04-19T01:14:23;100790.22;;;7.62;68.23
50484;BME280;36409;52.168;20.878;2023-04-19T01:16:58;100785.89;;;7.59;68.27
50484;BME280;36409;52.168;20.878;2023-04-19T01:19:31;100786.72;;;7.56;68.37
50484;BME280;36409;52.168;20.878;2023-04-19T01:22:05;100780.64;;;7.54;68.26
50484;BME280;36409;52.168;20.878;2023-04-19T01:24:39;100780.65;;;7.51;68.60
50484;BME280;36409;52.168;20.878;2023-04-19T01:27:11;100778.91;;;7.50;68.65
50484;BME280;36409;52.168;20.878;2023-04-19T01:29:44;100772.83;;;7.50;68.90
50484;BME280;36409;52.168;20.878;2023-04-19T01:32:16;100773.69;;;7.49;69.09
50484;BME280;36409;52.168;20.878;2023-04-19T01:34:49;100771.98;;;7.48;68.78
50484;BME280;36409;52.168;20.878;2023-04-19T01:37:22;100771.09;;;7.47;69.04
50484;BME280;36409;52.168;20.878;2023-04-19T01:39:54;100773.66;;;7.44;69.10
50484;BME280;36409;52.168;20.878;2023-04-19T01:42:26;100772.81;;;7.44;69.52
50484;BME280;36409;52.168;20.878;2023-04-19T01:45:04;100772.81;;;7.44;69.46
50484;BME280;36409;52.168;20.878;2023-04-19T01:47:36;100780.60;;;7.44;69.47
50484;BME280;36409;52.168;20.878;2023-04-19T01:50:12;100774.52;;;7.43;69.57
50484;BME280;36409;52.168;20.878;2023-04-19T01:52:45;100773.67;;;7.42;69.54
50484;BME280;36409;52.168;20.878;2023-04-19T01:55:17;100771.92;;;7.43;69.40
50484;BME280;36409;52.168;20.878;2023-04-19T01:57:50;100775.41;;;7.45;69.78
50484;BME280;36409;52.168;20.878;2023-04-19T02:00:25;100769.37;;;7.48;69.77
50484;BME280;36409;52.168;20.878;2023-04-19T02:02:58;100781.50;;;7.50;69.68
50484;BME280;36409;52.168;20.878;2023-04-19T02:05:32;100778.91;;;7.50;69.62
50484;BME280;36409;52.168;20.878;2023-04-19T02:08:04;100779.77;;;7.49;69.75
50484;BME280;36409;52.168;20.878;2023-04-19T02:10:37;100772.86;;;7.51;70.08
50484;BME280;36409;52.168;20.878;2023-04-19T02:13:09;100772.00;;;7.52;70.03
50484;BME280;36409;52.168;20.878;2023-04-19T02:15:41;100762.46;;;7.53;70.27
50484;BME280;36409;52.168;20.878;2023-04-19T02:18:14;100755.55;;;7.53;70.06
50484;BME280;36409;52.168;20.878;2023-04-19T02:20:47;100758.13;;;7.52;69.89
50484;BME280;36409;52.168;20.878;2023-04-19T02:23:23;100762.44;;;7.48;70.00
50484;BME280;36409;52.168;20.878;2023-04-19T02:25:56;100750.31;;;7.46;70.27
50484;BME280;36409;52.168;20.878;2023-04-19T02:28:32;100749.44;;;7.44;70.10
50484;BME280;36409;52.168;20.878;2023-04-19T02:31:06;100749.44;;;7.42;70.03
50484;BME280;36409;52.168;20.878;2023-04-19T02:33:39;100745.96;;;7.40;70.04
50484;BME280;36409;52.168;20.878;2023-04-19T02:36:11;100744.23;;;7.37;70.26
50484;BME280;36409;52.168;20.878;2023-04-19T02:38:44;100739.86;;;7.35;70.20
50484;BME280;36409;52.168;20.878;2023-04-19T02:41:20;100738.13;;;7.34;70.10
50484;BME280;36409;52.168;20.878;2023-04-19T02:43:52;100732.93;;;7.32;70.50
50484;BME280;36409;52.168;20.878;2023-04-19T02:46:26;100728.59;;;7.30;70.28
50484;BME280;36409;52.168;20.878;2023-04-19T02:49:01;100728.57;;;7.28;70.33
50484;BME280;36409;52.168;20.878;2023-04-19T02:51:33;100725.98;;;7.26;70.57
50484;BME280;36409;52.168;20.878;2023-04-19T02:54:06;100719.91;;;7.24;70.66
50484;BME280;36409;52.168;20.878;2023-04-19T02:56:38;100719.91;;;7.24;70.59
50484;BME280;36409;52.168;20.878;2023-04-19T02:59:11;100713.86;;;7.24;70.69
50484;BME280;36409;52.168;20.878;2023-04-19T03:01:43;100708.64;;;7.21;70.56
50484;BME280;36409;52.168;20.878;2023-04-19T03:04:16;100702.59;;;7.20;70.70
50484;BME280;36409;52.168;20.878;2023-04-19T03:06:49;100700.85;;;7.21;70.86
50484;BME280;36409;52.168;20.878;2023-04-19T03:09:22;100695.63;;;7.18;70.96
50484;BME280;36409;52.168;20.878;2023-04-19T03:11:55;100701.68;;;7.17;70.89
50484;BME280;36409;52.168;20.878;2023-04-19T03:14:27;100693.89;;;7.15;71.00
50484;BME280;36409;52.168;20.878;2023-04-19T03:17:00;100692.16;;;7.13;71.08
50484;BME280;36409;52.168;20.878;2023-04-19T03:19:33;100693.02;;;7.11;71.13
50484;BME280;36409;52.168;20.878;2023-04-19T03:22:06;100689.55;;;7.09;71.28
50484;BME280;36409;52.168;20.878;2023-04-19T03:24:39;100688.69;;;7.09;71.21
50484;BME280;36409;52.168;20.878;2023-04-19T03:27:20;100685.21;;;7.07;71.11
50484;BME280;36409;52.168;20.878;2023-04-19T03:29:58;100690.41;;;7.07;71.09
50484;BME280;36409;52.168;20.878;2023-04-19T03:32:34;100676.54;;;7.05;71.21
50484;BME280;36409;52.168;20.878;2023-04-19T03:35:10;100686.92;;;7.05;71.80
50484;BME280;36409;52.168;20.878;2023-04-19T03:37:42;100679.11;;;7.02;71.37
50484;BME280;36409;52.168;20.878;2023-04-19T03:40:15;100676.52;;;7.00;71.27
50484;BME280;36409;52.168;20.878;2023-04-19T03:42:48;100673.89;;;6.99;71.40
50484;BME280;36409;52.168;20.878;2023-04-19T03:45:28;100668.70;;;6.97;71.44
50484;BME280;36409;52.168;20.878;2023-04-19T03:48:03;100673.02;;;6.95;71.46
50484;BME280;36409;52.168;20.878;2023-04-19T03:50:37;100663.49;;;6.94;71.28
50484;BME280;36409;52.168;20.878;2023-04-19T03:53:11;100664.34;;;6.93;71.83
50484;BME280;36409;52.168;20.878;2023-04-19T03:55:43;100663.49;;;6.94;71.52
50484;BME280;36409;52.168;20.878;2023-04-19T03:58:16;100666.94;;;6.93;71.62
50484;BME280;36409;52.168;20.878;2023-04-19T04:00:55;100661.75;;;6.93;72.18
50484;BME280;36409;52.168;20.878;2023-04-19T04:03:28;100659.16;;;6.93;72.16
50484;BME280;36409;52.168;20.878;2023-04-19T04:06:05;100654.86;;;6.92;71.82
50484;BME280;36409;52.168;20.878;2023-04-19T04:08:38;100653.11;;;6.92;71.49
50484;BME280;36409;52.168;20.878;2023-04-19T04:11:12;100660.02;;;6.89;71.72
50484;BME280;36409;52.168;20.878;2023-04-19T04:13:45;100653.09;;;6.86;71.71
50484;BME280;36409;52.168;20.878;2023-04-19T04:16:22;100658.26;;;6.85;72.08
50484;BME280;36409;52.168;20.878;2023-04-19T04:18:55;100660.84;;;6.85;72.00
50484;BME280;36409;52.168;20.878;2023-04-19T04:21:29;100656.52;;;6.84;71.98
50484;BME280;36409;52.168;20.878;2023-04-19T04:24:06;100652.19;;;6.83;71.93
50484;BME280;36409;52.168;20.878;2023-04-19T04:26:46;100654.78;;;6.81;72.16
50484;BME280;36409;52.168;20.878;2023-04-19T04:29:26;100652.19;;;6.81;72.19
50484;BME280;36409;52.168;20.878;2023-04-19T04:32:05;100649.59;;;6.81;72.20
50484;BME280;36409;52.168;20.878;2023-04-19T04:34:40;100647.84;;;6.82;72.45
50484;BME280;36409;52.168;20.878;2023-04-19T04:37:17;100653.04;;;6.82;72.15
50484;BME280;36409;52.168;20.878;2023-04-19T04:39:50;100656.52;;;6.80;72.25
50484;BME280;36409;52.168;20.878;2023-04-19T04:42:23;100650.45;;;6.80;72.43
50484;BME280;36409;52.168;20.878;2023-04-19T04:44:56;100648.70;;;6.79;72.18
50484;BME280;36409;52.168;20.878;2023-04-19T04:47:33;100644.41;;;6.79;72.28
50484;BME280;36409;52.168;20.878;2023-04-19T04:50:11;100647.85;;;6.80;72.34
50484;BME280;36409;52.168;20.878;2023-04-19T04:52:43;100646.11;;;6.79;72.44
50484;BME280;36409;52.168;20.878;2023-04-19T04:55:21;100643.52;;;6.79;72.45
50484;BME280;36409;52.168;20.878;2023-04-19T04:57:53;100649.56;;;6.78;72.64
50484;BME280;36409;52.168;20.878;2023-04-19T05:00:44;100644.37;;;6.75;72.74
50484;BME280;36409;52.168;20.878;2023-04-19T05:03:17;100646.98;;;6.75;72.52
50484;BME280;36409;52.168;20.878;2023-04-19T05:05:55;100639.16;;;6.73;72.37
50484;BME280;36409;52.168;20.878;2023-04-19T05:08:28;100639.16;;;6.73;72.80
50484;BME280;36409;52.168;20.878;2023-04-19T05:11:13;100631.38;;;6.73;72.64
50484;BME280;36409;52.168;20.878;2023-04-19T05:13:49;100631.38;;;6.73;72.60
50484;BME280;36409;52.168;20.878;2023-04-19T05:16:22;100634.83;;;6.72;72.80
50484;BME280;36409;52.168;20.878;2023-04-19T05:18:55;100627.91;;;6.70;72.73
50484;BME280;36409;52.168;20.878;2023-04-19T05:21:30;100628.77;;;6.67;73.02
50484;BME280;36409;52.168;20.878;2023-04-19T05:24:11;100627.88;;;6.67;72.78
50484;BME280;36409;52.168;20.878;2023-04-19T05:26:44;100623.58;;;6.67;73.00
50484;BME280;36409;52.168;20.878;2023-04-19T05:29:20;100625.31;;;6.70;73.01
50484;BME280;36409;52.168;20.878;2023-04-19T05:32:06;100627.05;;;6.71;73.12
50484;BME280;36409;52.168;20.878;2023-04-19T05:34:46;100621.01;;;6.72;73.21
50484;BME280;36409;52.168;20.878;2023-04-19T05:37:19;100621.86;;;6.72;72.96
50484;BME280;36409;52.168;20.878;2023-04-19T05:39:52;100621.00;;;6.73;73.14
50484;BME280;36409;52.168;20.878;2023-04-19T05:42:24;100618.44;;;6.75;72.88
50484;BME280;36409;52.168;20.878;2023-04-19T05:44:58;100617.55;;;6.74;73.15
50484;BME280;36409;52.168;20.878;2023-04-19T05:47:36;100613.25;;;6.76;73.13
50484;BME280;36409;52.168;20.878;2023-04-19T05:50:30;100605.46;;;6.76;73.35
50484;BME280;36409;52.168;20.878;2023-04-19T05:53:27;100608.05;;;6.78;73.60
50484;BME280;36409;52.168;20.878;2023-04-19T05:56:01;100611.53;;;6.78;73.49
50484;BME280;36409;52.168;20.878;2023-04-19T05:58:34;100609.82;;;6.80;73.58
50484;BME280;36409;52.168;20.878;2023-04-19T06:01:07;100602.03;;;6.82;73.41
50484;BME280;36409;52.168;20.878;2023-04-19T06:03:39;100608.08;;;6.83;73.50
50484;BME280;36409;52.168;20.878;2023-04-19T06:06:15;100593.39;;;6.83;73.48
50484;BME280;36409;52.168;20.878;2023-04-19T06:08:47;100595.98;;;6.85;73.41
50484;BME280;36409;52.168;20.878;2023-04-19T06:11:23;100591.67;;;6.85;73.60
50484;BME280;36409;52.168;20.878;2023-04-19T06:14:08;100592.52;;;6.87;73.68
50484;BME280;36409;52.168;20.878;2023-04-19T06:16:43;100595.12;;;6.87;73.65
50484;BME280;36409;52.168;20.878;2023-04-19T06:19:16;100594.27;;;6.85;73.49
50484;BME280;36409;52.168;20.878;2023-04-19T06:21:49;100595.98;;;6.83;73.69
50484;BME280;36409;52.168;20.878;2023-04-19T06:24:21;100595.98;;;6.83;73.94
50484;BME280;36409;52.168;20.878;2023-04-19T06:26:55;100596.84;;;6.82;74.04
50484;BME280;36409;52.168;20.878;2023-04-19T06:29:33;100602.03;;;6.82;73.77
50484;BME280;36409;52.168;20.878;2023-04-19T06:32:05;100599.43;;;6.84;73.94
50484;BME280;36409;52.168;20.878;2023-04-19T06:34:38;100604.62;;;6.84;73.82
50484;BME280;36409;52.168;20.878;2023-04-19T06:37:10;100599.43;;;6.84;74.03
50484;BME280;36409;52.168;20.878;2023-04-19T06:39:42;100600.29;;;6.83;73.78
50484;BME280;36409;52.168;20.878;2023-04-19T06:42:14;100608.08;;;6.83;73.84
50484;BME280;36409;52.168;20.878;2023-04-19T06:44:49;100610.70;;;6.84;73.93
50484;BME280;36409;52.168;20.878;2023-04-19T06:47:22;100611.58;;;6.86;74.08
50484;BME280;36409;52.168;20.878;2023-04-19T06:49:54;100602.05;;;6.88;73.87
50484;BME280;36409;52.168;20.878;2023-04-19T06:52:29;100609.00;;;6.92;74.18
50484;BME280;36409;52.168;20.878;2023-04-19T06:55:05;100609.87;;;6.94;74.00
50484;BME280;36409;52.168;20.878;2023-04-19T06:57:37;100613.34;;;6.98;74.13
50484;BME280;36409;52.168;20.878;2023-04-19T07:00:12;100620.27;;;7.01;73.56
50484;BME280;36409;52.168;20.878;2023-04-19T07:02:45;100625.48;;;7.04;74.24
50484;BME280;36409;52.168;20.878;2023-04-19T07:05:17;100622.91;;;7.07;74.27
50484;BME280;36409;52.168;20.878;2023-04-19T07:07:49;100621.19;;;7.10;74.37
50484;BME280;36409;52.168;20.878;2023-04-19T07:10:22;100614.27;;;7.16;74.61
50484;BME280;36409;52.168;20.878;2023-04-19T07:12:54;100610.83;;;7.21;74.25
50484;BME280;36409;52.168;20.878;2023-04-19T07:15:26;100610.00;;;7.24;74.28
50484;BME280;36409;52.168;20.878;2023-04-19T07:17:59;100607.39;;;7.27;74.38
50484;BME280;36409;52.168;20.878;2023-04-19T07:20:31;100607.41;;;7.30;74.05
50484;BME280;36409;52.168;20.878;2023-04-19T07:23:06;100604.84;;;7.32;74.22
50484;BME280;36409;52.168;20.878;2023-04-19T07:25:39;100604.84;;;7.32;74.41
50484;BME280;36409;52.168;20.878;2023-04-19T07:28:14;100601.38;;;7.34;74.30
50484;BME280;36409;52.168;20.878;2023-04-19T07:30:46;100599.66;;;7.36;74.55
50484;BME280;36409;52.168;20.878;2023-04-19T07:33:18;100606.58;;;7.39;74.48
50484;BME280;36409;52.168;20.878;2023-04-19T07:35:51;100606.58;;;7.44;74.22
50484;BME280;36409;52.168;20.878;2023-04-19T07:38:24;100607.45;;;7.47;74.65
50484;BME280;36409;52.168;20.878;2023-04-19T07:40:59;100607.47;;;7.50;74.45
50484;BME280;36409;52.168;20.878;2023-04-19T07:43:31;100608.34;;;7.54;74.69
50484;BME280;36409;52.168;20.878;2023-04-19T07:46:09;100603.14;;;7.54;74.49
50484;BME280;36409;52.168;20.878;2023-04-19T07:48:42;100607.48;;;7.53;74.25
50484;BME280;36409;52.168;20.878;2023-04-19T07:51:20;100609.20;;;7.53;74.66
50484;BME280;36409;52.168;20.878;2023-04-19T07:53:54;100608.34;;;7.52;74.71
50484;BME280;36409;52.168;20.878;2023-04-19T07:56:26;100608.34;;;7.54;74.62
50484;BME280;36409;52.168;20.878;2023-04-19T07:58:59;100610.95;;;7.57;74.54
50484;BME280;36409;52.168;20.878;2023-04-19T08:01:42;100614.42;;;7.59;74.84
50484;BME280;36409;52.168;20.878;2023-04-19T08:04:15;100608.36;;;7.62;74.57
50484;BME280;36409;52.168;20.878;2023-04-19T08:06:54;100608.38;;;7.65;74.69
50484;BME280;36409;52.168;20.878;2023-04-19T08:09:27;100605.75;;;7.68;74.78
50484;BME280;36409;52.168;20.878;2023-04-19T08:12:03;100611.83;;;7.70;74.65
50484;BME280;36409;52.168;20.878;2023-04-19T08:14:35;100607.50;;;7.72;74.81
50484;BME280;36409;52.168;20.878;2023-04-19T08:17:32;100609.25;;;7.76;74.74
50484;BME280;36409;52.168;20.878;2023-04-19T08:20:12;100608.38;;;7.79;74.70
50484;BME280;36409;52.168;20.878;2023-04-19T08:22:49;100605.77;;;7.80;74.74
50484;BME280;36409;52.168;20.878;2023-04-19T08:25:22;100604.05;;;7.82;74.71
50484;BME280;36409;52.168;20.878;2023-04-19T08:27:56;100604.94;;;7.87;74.64
50484;BME280;36409;52.168;20.878;2023-04-19T08:30:29;100598.88;;;7.93;74.76
50484;BME280;36409;52.168;20.878;2023-04-19T08:33:01;100599.71;;;8.00;74.56
50484;BME280;36409;52.168;20.878;2023-04-19T08:35:34;100598.01;;;8.03;75.02
50484;BME280;36409;52.168;20.878;2023-04-19T08:38:07;100602.31;;;8.08;74.62
50484;BME280;36409;52.168;20.878;2023-04-19T08:40:43;100604.06;;;8.16;74.79
50484;BME280;36409;52.168;20.878;2023-04-19T08:43:18;100604.06;;;8.32;74.86
50484;BME280;36409;52.168;20.878;2023-04-19T08:45:50;100600.56;;;8.50;74.78
50484;BME280;36409;52.168;20.878;2023-04-19T08:48:25;100603.16;;;8.64;74.64
50484;BME280;36409;52.168;20.878;2023-04-19T08:51:00;100606.59;;;8.75;74.90
50484;BME280;36409;52.168;20.878;2023-04-19T08:53:36;100608.28;;;8.87;74.83
50484;BME280;36409;52.168;20.878;2023-04-19T08:56:10;100610.84;;;9.00;74.74
50484;BME280;36409;52.168;20.878;2023-04-19T08:58:59;100618.59;;;9.17;74.80
50484;BME280;36409;52.168;20.878;2023-04-19T09:01:48;100614.19;;;9.34;75.22
50484;BME280;36409;52.168;20.878;2023-04-19T09:04:22;100613.22;;;9.48;74.86
50484;BME280;36409;52.168;20.878;2023-04-19T09:07:07;100600.09;;;9.66;74.91
50484;BME280;36409;52.168;20.878;2023-04-19T09:09:39;100600.67;;;10.02;74.55
50484;BME280;36409;52.168;20.878;2023-04-19T09:12:32;100605.50;;;10.50;74.42
50484;BME280;36409;52.168;20.878;2023-04-19T09:15:06;100597.41;;;10.74;74.75
50484;BME280;36409;52.168;20.878;2023-04-19T09:17:40;100607.70;;;10.89;74.36
50484;BME280;36409;52.168;20.878;2023-04-19T09:20:13;100607.55;;;11.00;74.26
50484;BME280;36409;52.168;20.878;2023-04-19T09:23:03;100600.45;;;11.11;74.40
50484;BME280;36409;52.168;20.878;2023-04-19T09:25:36;100601.98;;;11.26;73.91
50484;BME280;36409;52.168;20.878;2023-04-19T09:28:32;100605.36;;;11.36;74.04
50484;BME280;36409;52.168;20.878;2023-04-19T09:31:12;100603.42;;;11.51;74.16
50484;BME280;36409;52.168;20.878;2023-04-19T09:34:15;100606.00;;;11.52;73.50
50484;BME280;36409;52.168;20.878;2023-04-19T09:36:48;100605.86;;;11.63;73.51
50484;BME280;36409;52.168;20.878;2023-04-19T09:39:38;100611.05;;;11.65;73.33
50484;BME280;36409;52.168;20.878;2023-04-19T09:42:11;100609.33;;;11.64;72.67
50484;BME280;36409;52.168;20.878;2023-04-19T09:44:59;100612.75;;;11.67;73.19
50484;BME280;36409;52.168;20.878;2023-04-19T09:48:03;100605.72;;;11.72;73.04
50484;BME280;36409;52.168;20.878;2023-04-19T09:50:51;100603.14;;;11.69;72.64
50484;BME280;36409;52.168;20.878;2023-04-19T09:53:31;100605.75;;;11.69;72.90
50484;BME280;36409;52.168;20.878;2023-04-19T09:56:07;100611.13;;;11.60;72.43
50484;BME280;36409;52.168;20.878;2023-04-19T09:58:42;100612.25;;;11.42;71.41
50484;BME280;36409;52.168;20.878;2023-04-19T10:01:27;100606.27;;;11.32;72.25
50484;BME280;36409;52.168;20.878;2023-04-19T10:04:00;100608.95;;;11.29;72.03
50484;BME280;36409;52.168;20.878;2023-04-19T10:06:55;100614.30;;;11.18;71.92
50484;BME280;36409;52.168;20.878;2023-04-19T10:09:50;100613.56;;;11.08;72.30
50484;BME280;36409;52.168;20.878;2023-04-19T10:12:36;100611.05;;;11.01;71.91
50484;BME280;36409;52.168;20.878;2023-04-19T10:15:34;100598.08;;;10.93;71.98
50484;BME280;36409;52.168;20.878;2023-04-19T10:18:20;100606.67;;;11.01;72.12
50484;BME280;36409;52.168;20.878;2023-04-19T10:20:56;100610.98;;;11.04;71.33
50484;BME280;36409;52.168;20.878;2023-04-19T10:23:32;100609.22;;;11.06;71.96
50484;BME280;36409;52.168;20.878;2023-04-19T10:26:04;100604.00;;;11.06;71.43
50484;BME280;36409;52.168;20.878;2023-04-19T10:28:37;100611.84;;;11.06;72.39
50484;BME280;36409;52.168;20.878;2023-04-19T10:31:13;100616.20;;;11.04;71.39
50484;BME280;36409;52.168;20.878;2023-04-19T10:33:48;100620.70;;;10.94;71.73
50484;BME280;36409;52.168;20.878;2023-04-19T10:36:23;100622.52;;;10.87;72.12
50484;BME280;36409;52.168;20.878;2023-04-19T10:38:58;100630.45;;;10.76;71.28
50484;BME280;36409;52.168;20.878;2023-04-19T10:41:56;100634.98;;;10.62;70.99
50484;BME280;36409;52.168;20.878;2023-04-19T10:44:32;100632.48;;;10.49;71.37
50484;BME280;36409;52.168;20.878;2023-04-19T10:47:05;100639.48;;;10.46;71.49
50484;BME280;36409;52.168;20.878;2023-04-19T10:49:46;100632.58;;;10.40;70.96
50484;BME280;36409;52.168;20.878;2023-04-19T10:52:32;100626.46;;;10.36;70.87
50484;BME280;36409;52.168;20.878;2023-04-19T10:55:07;100629.12;;;10.33;72.13
50484;BME280;36409;52.168;20.878;2023-04-19T10:58:03;100628.20;;;10.41;71.06
50484;BME280;36409;52.168;20.878;2023-04-19T11:00:36;100629.85;;;10.53;70.93
50484;BME280;36409;52.168;20.878;2023-04-19T11:06:19;100640.06;;;10.73;71.56
50484;BME280;36409;52.168;20.878;2023-04-19T11:08:51;100635.70;;;10.75;72.01
50484;BME280;36409;52.168;20.878;2023-04-19T11:11:24;100639.22;;;10.72;71.72
50484;BME280;36409;52.168;20.878;2023-04-19T11:14:00;100643.58;;;10.70;71.96
50484;BME280;36409;52.168;20.878;2023-04-19T11:16:38;100641.02;;;10.65;71.47
50484;BME280;36409;52.168;20.878;2023-04-19T11:19:18;100643.70;;;10.58;71.70
50484;BME280;36409;52.168;20.878;2023-04-19T11:21:50;100638.56;;;10.52;70.97
50484;BME280;36409;52.168;20.878;2023-04-19T11:24:23;100642.91;;;10.48;71.12
50484;BME280;36409;52.168;20.878;2023-04-19T11:26:56;100640.28;;;10.51;71.69
50484;BME280;36409;52.168;20.878;2023-04-19T11:29:31;100637.61;;;10.59;71.44
50484;BME280;36409;52.168;20.878;2023-04-19T11:32:04;100645.41;;;10.62;71.17
50484;BME280;36409;52.168;20.878;2023-04-19T11:34:40;100631.41;;;10.69;71.14
50484;BME280;36409;52.168;20.878;2023-04-19T11:37:13;100634.74;;;10.82;71.98
50484;BME280;36409;52.168;20.878;2023-04-19T11:39:48;100636.28;;;11.00;72.00
50484;BME280;36409;52.168;20.878;2023-04-19T11:42:21;100640.39;;;11.21;71.66
50484;BME280;36409;52.168;20.878;2023-04-19T11:44:55;100632.30;;;11.41;71.22
50484;BME280;36409;52.168;20.878;2023-04-19T11:47:29;100637.27;;;11.60;71.01
50484;BME280;36409;52.168;20.878;2023-04-19T11:53:14;100628.64;;;12.13;70.15
50484;BME280;36409;52.168;20.878;2023-04-19T11:55:50;100623.80;;;12.43;71.09
50484;BME280;36409;52.168;20.878;2023-04-19T11:58:25;100624.34;;;12.60;70.86
50484;BME280;36409;52.168;20.878;2023-04-19T12:01:04;100624.29;;;12.63;69.78
50484;BME280;36409;52.168;20.878;2023-04-19T12:03:43;100627.09;;;12.53;69.82
50484;BME280;36409;52.168;20.878;2023-04-19T12:06:20;100634.14;;;12.49;69.39
50484;BME280;36409;52.168;20.878;2023-04-19T12:08:54;100624.61;;;12.45;69.75
50484;BME280;36409;52.168;20.878;2023-04-19T12:11:43;100628.15;;;12.42;69.12
50484;BME280;36409;52.168;20.878;2023-04-19T12:14:16;100627.38;;;12.37;69.64
50484;BME280;36409;52.168;20.878;2023-04-19T12:17:09;100624.69;;;12.40;69.09
50484;BME280;36409;52.168;20.878;2023-04-19T12:19:47;100629.87;;;12.43;69.96
50484;BME280;36409;52.168;20.878;2023-04-19T12:22:20;100629.92;;;12.42;68.98
50484;BME280;36409;52.168;20.878;2023-04-19T12:24:54;100634.36;;;12.36;68.43
50484;BME280;36409;52.168;20.878;2023-04-19T12:27:27;100638.74;;;12.36;70.14
50484;BME280;36409;52.168;20.878;2023-04-19T12:30:01;100643.94;;;12.38;68.96
50484;BME280;36409;52.168;20.878;2023-04-19T12:32:34;100637.90;;;12.34;68.93
50484;BME280;36409;52.168;20.878;2023-04-19T12:35:08;100643.98;;;12.34;69.24
50484;BME280;36409;52.168;20.878;2023-04-19T12:37:41;100650.18;;;12.30;69.87
50484;BME280;36409;52.168;20.878;2023-04-19T12:40:35;100646.84;;;12.20;69.85
50484;BME280;36409;52.168;20.878;2023-04-19T12:43:09;100645.22;;;12.13;68.92
50484;BME280;36409;52.168;20.878;2023-04-19T12:45:41;100646.95;;;12.14;69.16
50484;BME280;36409;52.168;20.878;2023-04-19T12:48:14;100649.58;;;12.14;68.73
50484;BME280;36409;52.168;20.878;2023-04-19T12:50:46;100658.19;;;12.19;69.53
50484;BME280;36409;52.168;20.878;2023-04-19T12:53:19;100655.50;;;12.24;68.93
50484;BME280;36409;52.168;20.878;2023-04-19T12:55:52;100652.96;;;12.19;68.52
50484;BME280;36409;52.168;20.878;2023-04-19T12:58:25;100648.69;;;12.14;68.81
50484;BME280;36409;52.168;20.878;2023-04-19T13:00:59;100647.03;;;12.10;68.68
50484;BME280;36409;52.168;20.878;2023-04-19T13:03:31;100648.80;;;12.08;68.95
50484;BME280;36409;52.168;20.878;2023-04-19T13:06:07;100643.61;;;12.04;68.72
50484;BME280;36409;52.168;20.878;2023-04-19T13:08:41;100638.42;;;12.01;68.52
50484;BME280;36409;52.168;20.878;2023-04-19T13:11:17;100638.45;;;12.00;69.31
50484;BME280;36409;52.168;20.878;2023-04-19T13:13:53;100635.84;;;12.00;69.03
50484;BME280;36409;52.168;20.878;2023-04-19T13:16:25;100634.12;;;11.96;69.22
50484;BME280;36409;52.168;20.878;2023-04-19T13:19:03;100641.96;;;11.96;68.59
50484;BME280;36409;52.168;20.878;2023-04-19T13:21:39;100641.96;;;11.96;68.37
50484;BME280;36409;52.168;20.878;2023-04-19T13:24:11;100647.19;;;11.99;69.31
50484;BME280;36409;52.168;20.878;2023-04-19T13:26:44;100641.88;;;12.03;68.46
50484;BME280;36409;52.168;20.878;2023-04-19T13:29:17;100640.87;;;12.12;69.21
50484;BME280;36409;52.168;20.878;2023-04-19T13:31:51;100635.53;;;12.18;68.18
50484;BME280;36409;52.168;20.878;2023-04-19T13:34:23;100645.84;;;12.28;68.54
50484;BME280;36409;52.168;20.878;2023-04-19T13:36:58;100643.02;;;12.40;69.20